sensor_id;sensor_type;location;lat;lon;timestamp;temperature;humidity
21267;DHT22;10791;53.108;18.326;2022-12-18T00:00:32;-3.60;99.90
21267;DHT22;10791;53.108;18.326;2022-12-18T00:05:56;-3.60;99.90
21267;DHT22;10791;53.108;18.326;2022-12-18T00:11:12;-3.60;99.90
21267;DHT22;10791;53.108;18.326;2022-12-18T00:16:19;-3.60;99.90
21267;DHT22;10791;53.108;18.326;2022-12-18T00:21:23;-3.60;99.90
21267;DHT22;10791;53.108;18.326;2022-12-18T00:26:30;-3.60;99.90
21267;DHT22;10791;53.108;18.326;2022-12-18T00:31:34;-3.60;99.90
21267;DHT22;10791;53.108;18.326;2022-12-18T00:36:37;-3.60;99.90
21267;DHT22;10791;53.108;18.326;2022-12-18T00:41:41;-3.60;99.90
21267;DHT22;10791;53.108;18.326;2022-12-18T00:47:03;-3.50;99.90
21267;DHT22;10791;53.108;18.326;2022-12-18T00:52:06;-3.50;99.90
21267;DHT22;10791;53.108;18.326;2022-12-18T00:57:09;-3.50;99.90
21267;DHT22;10791;53.108;18.326;2022-12-18T01:02:13;-3.50;99.90
21267;DHT22;10791;53.108;18.326;2022-12-18T01:07:17;-3.50;99.90
21267;DHT22;10791;53.108;18.326;2022-12-18T01:12:20;-3.50;99.90
21267;DHT22;10791;53.108;18.326;2022-12-18T01:17:24;-3.50;99.90
21267;DHT22;10791;53.108;18.326;2022-12-18T01:22:27;-3.50;99.90
21267;DHT22;10791;53.108;18.326;2022-12-18T01:27:32;-3.50;99.90
21267;DHT22;10791;53.108;18.326;2022-12-18T01:32:36;-3.50;99.90
21267;DHT22;10791;53.108;18.326;2022-12-18T01:37:39;-3.50;99.90
21267;DHT22;10791;53.108;18.326;2022-12-18T01:42:42;-3.50;99.90
21267;DHT22;10791;53.108;18.326;2022-12-18T01:48:05;-3.50;99.90
21267;DHT22;10791;53.108;18.326;2022-12-18T01:53:15;-3.50;99.90
21267;DHT22;10791;53.108;18.326;2022-12-18T01:58:24;-3.50;99.90
21267;DHT22;10791;53.108;18.326;2022-12-18T02:03:30;-3.50;99.90
21267;DHT22;10791;53.108;18.326;2022-12-18T02:08:45;-3.50;99.90
21267;DHT22;10791;53.108;18.326;2022-12-18T02:19:01;-3.40;99.90
21267;DHT22;10791;53.108;18.326;2022-12-18T02:24:24;-3.50;99.90
21267;DHT22;10791;53.108;18.326;2022-12-18T02:29:33;-3.40;99.90
21267;DHT22;10791;53.108;18.326;2022-12-18T02:34:39;-3.50;99.90
21267;DHT22;10791;53.108;18.326;2022-12-18T02:39:46;-3.40;99.90
21267;DHT22;10791;53.108;18.326;2022-12-18T02:44:51;-3.40;99.90
21267;DHT22;10791;53.108;18.326;2022-12-18T03:00:23;-3.40;99.90
21267;DHT22;10791;53.108;18.326;2022-12-18T03:05:41;-3.40;99.90
21267;DHT22;10791;53.108;18.326;2022-12-18T03:16:47;-3.40;99.90
21267;DHT22;10791;53.108;18.326;2022-12-18T03:21:54;-3.40;99.90
21267;DHT22;10791;53.108;18.326;2022-12-18T03:27:02;-3.30;99.90
21267;DHT22;10791;53.108;18.326;2022-12-18T03:32:21;-3.40;99.90
21267;DHT22;10791;53.108;18.326;2022-12-18T03:37:27;-3.40;99.90
21267;DHT22;10791;53.108;18.326;2022-12-18T03:42:49;-3.40;99.90
21267;DHT22;10791;53.108;18.326;2022-12-18T03:58:30;-3.30;99.90
21267;DHT22;10791;53.108;18.326;2022-12-18T04:03:36;-3.30;99.90
21267;DHT22;10791;53.108;18.326;2022-12-18T04:08:41;-3.30;99.90
21267;DHT22;10791;53.108;18.326;2022-12-18T04:13:44;-3.30;99.90
21267;DHT22;10791;53.108;18.326;2022-12-18T04:18:48;-3.20;99.90
21267;DHT22;10791;53.108;18.326;2022-12-18T04:23:51;-3.30;99.90
21267;DHT22;10791;53.108;18.326;2022-12-18T04:28:55;-3.30;99.90
21267;DHT22;10791;53.108;18.326;2022-12-18T04:33:58;-3.30;99.90
21267;DHT22;10791;53.108;18.326;2022-12-18T04:39:02;-3.30;99.90
21267;DHT22;10791;53.108;18.326;2022-12-18T04:44:05;-3.30;99.90
21267;DHT22;10791;53.108;18.326;2022-12-18T04:49:09;-3.30;99.90
21267;DHT22;10791;53.108;18.326;2022-12-18T04:54:13;-3.30;99.90
21267;DHT22;10791;53.108;18.326;2022-12-18T04:59:17;-3.30;99.90
21267;DHT22;10791;53.108;18.326;2022-12-18T05:04:48;-3.30;99.90
21267;DHT22;10791;53.108;18.326;2022-12-18T05:09:52;-3.30;99.90
21267;DHT22;10791;53.108;18.326;2022-12-18T05:14:55;-3.30;99.90
21267;DHT22;10791;53.108;18.326;2022-12-18T05:19:59;-3.30;99.90
21267;DHT22;10791;53.108;18.326;2022-12-18T05:25:02;-3.40;99.90
21267;DHT22;10791;53.108;18.326;2022-12-18T05:30:06;-3.40;99.90
21267;DHT22;10791;53.108;18.326;2022-12-18T05:35:10;-3.40;99.90
21267;DHT22;10791;53.108;18.326;2022-12-18T05:40:14;-3.40;99.90
21267;DHT22;10791;53.108;18.326;2022-12-18T05:45:17;-3.40;99.90
21267;DHT22;10791;53.108;18.326;2022-12-18T05:50:20;-3.40;99.90
21267;DHT22;10791;53.108;18.326;2022-12-18T05:55:24;-3.40;99.90
21267;DHT22;10791;53.108;18.326;2022-12-18T06:00:27;-3.50;99.90
21267;DHT22;10791;53.108;18.326;2022-12-18T06:05:35;-3.50;99.90
21267;DHT22;10791;53.108;18.326;2022-12-18T06:10:40;-3.60;99.90
21267;DHT22;10791;53.108;18.326;2022-12-18T06:15:44;-3.60;99.90
21267;DHT22;10791;53.108;18.326;2022-12-18T06:20:55;-3.60;99.90
21267;DHT22;10791;53.108;18.326;2022-12-18T06:26:04;-3.70;99.90
21267;DHT22;10791;53.108;18.326;2022-12-18T06:31:09;-3.80;99.90
21267;DHT22;10791;53.108;18.326;2022-12-18T06:36:13;-3.80;99.90
21267;DHT22;10791;53.108;18.326;2022-12-18T06:41:18;-3.90;99.90
21267;DHT22;10791;53.108;18.326;2022-12-18T06:46:21;-4.00;99.90
21267;DHT22;10791;53.108;18.326;2022-12-18T06:51:25;-4.10;99.90
21267;DHT22;10791;53.108;18.326;2022-12-18T06:56:29;-4.20;99.90
21267;DHT22;10791;53.108;18.326;2022-12-18T07:01:32;-4.20;99.90
21267;DHT22;10791;53.108;18.326;2022-12-18T07:06:36;-4.30;99.90
21267;DHT22;10791;53.108;18.326;2022-12-18T07:11:39;-4.40;99.90
21267;DHT22;10791;53.108;18.326;2022-12-18T07:16:43;-4.50;99.90
21267;DHT22;10791;53.108;18.326;2022-12-18T07:21:46;-4.60;99.90
21267;DHT22;10791;53.108;18.326;2022-12-18T07:26:50;-4.60;99.90
21267;DHT22;10791;53.108;18.326;2022-12-18T07:31:53;-4.70;99.90
21267;DHT22;10791;53.108;18.326;2022-12-18T07:36:57;-4.70;99.90
21267;DHT22;10791;53.108;18.326;2022-12-18T07:42:01;-4.70;99.90
21267;DHT22;10791;53.108;18.326;2022-12-18T07:47:23;-4.70;99.90
21267;DHT22;10791;53.108;18.326;2022-12-18T07:52:27;-4.80;99.90
21267;DHT22;10791;53.108;18.326;2022-12-18T07:57:31;-4.80;99.90
21267;DHT22;10791;53.108;18.326;2022-12-18T08:02:53;-4.70;99.90
21267;DHT22;10791;53.108;18.326;2022-12-18T08:07:58;-4.70;99.90
21267;DHT22;10791;53.108;18.326;2022-12-18T08:13:01;-4.70;99.90
21267;DHT22;10791;53.108;18.326;2022-12-18T08:18:07;-4.70;99.90
21267;DHT22;10791;53.108;18.326;2022-12-18T08:23:15;-4.70;99.90
21267;DHT22;10791;53.108;18.326;2022-12-18T08:28:19;-4.60;99.90
21267;DHT22;10791;53.108;18.326;2022-12-18T08:33:23;-4.60;99.90
21267;DHT22;10791;53.108;18.326;2022-12-18T08:38:27;-4.60;99.90
21267;DHT22;10791;53.108;18.326;2022-12-18T08:43:31;-4.60;99.90
21267;DHT22;10791;53.108;18.326;2022-12-18T08:48:54;-4.70;99.90
21267;DHT22;10791;53.108;18.326;2022-12-18T08:53:58;-4.70;99.90
21267;DHT22;10791;53.108;18.326;2022-12-18T08:59:02;-4.70;99.90
21267;DHT22;10791;53.108;18.326;2022-12-18T09:04:08;-4.70;99.90
21267;DHT22;10791;53.108;18.326;2022-12-18T09:09:12;-4.70;99.90
21267;DHT22;10791;53.108;18.326;2022-12-18T09:14:16;-4.70;99.90
21267;DHT22;10791;53.108;18.326;2022-12-18T09:19:20;-4.60;99.90
21267;DHT22;10791;53.108;18.326;2022-12-18T09:24:23;-4.50;99.90
21267;DHT22;10791;53.108;18.326;2022-12-18T09:29:27;-4.40;99.90
21267;DHT22;10791;53.108;18.326;2022-12-18T09:34:30;-4.40;99.90
21267;DHT22;10791;53.108;18.326;2022-12-18T09:39:34;-4.40;99.90
21267;DHT22;10791;53.108;18.326;2022-12-18T09:44:43;-4.30;99.90
21267;DHT22;10791;53.108;18.326;2022-12-18T09:49:56;-4.30;99.90
21267;DHT22;10791;53.108;18.326;2022-12-18T09:55:37;-4.30;99.90
21267;DHT22;10791;53.108;18.326;2022-12-18T10:00:42;-4.30;99.90
21267;DHT22;10791;53.108;18.326;2022-12-18T10:06:18;-4.30;99.90
21267;DHT22;10791;53.108;18.326;2022-12-18T10:27:25;-4.20;99.90
21267;DHT22;10791;53.108;18.326;2022-12-18T10:32:30;-4.20;99.90
21267;DHT22;10791;53.108;18.326;2022-12-18T10:37:33;-4.10;99.90
21267;DHT22;10791;53.108;18.326;2022-12-18T10:42:37;-4.20;99.90
21267;DHT22;10791;53.108;18.326;2022-12-18T10:47:48;-4.20;99.90
21267;DHT22;10791;53.108;18.326;2022-12-18T10:52:57;-4.20;99.90
21267;DHT22;10791;53.108;18.326;2022-12-18T10:58:30;-4.30;99.90
21267;DHT22;10791;53.108;18.326;2022-12-18T11:03:44;-4.20;99.90
21267;DHT22;10791;53.108;18.326;2022-12-18T11:09:00;-4.20;99.90
21267;DHT22;10791;53.108;18.326;2022-12-18T11:14:23;-4.20;99.90
21267;DHT22;10791;53.108;18.326;2022-12-18T11:19:37;-4.20;99.90
21267;DHT22;10791;53.108;18.326;2022-12-18T11:24:41;-4.20;99.90
21267;DHT22;10791;53.108;18.326;2022-12-18T11:29:45;-4.30;99.90
21267;DHT22;10791;53.108;18.326;2022-12-18T11:34:55;-4.40;99.90
21267;DHT22;10791;53.108;18.326;2022-12-18T11:40:09;-4.40;99.90
21267;DHT22;10791;53.108;18.326;2022-12-18T11:45:20;-4.30;99.90
21267;DHT22;10791;53.108;18.326;2022-12-18T11:50:33;-4.30;99.90
21267;DHT22;10791;53.108;18.326;2022-12-18T12:11:53;-4.20;99.90
21267;DHT22;10791;53.108;18.326;2022-12-18T12:17:49;-4.30;99.90
21267;DHT22;10791;53.108;18.326;2022-12-18T12:22:53;-4.30;99.90
21267;DHT22;10791;53.108;18.326;2022-12-18T12:28:09;-4.40;99.90
21267;DHT22;10791;53.108;18.326;2022-12-18T12:39:08;-4.60;99.90
21267;DHT22;10791;53.108;18.326;2022-12-18T12:44:23;-4.70;99.90
21267;DHT22;10791;53.108;18.326;2022-12-18T12:49:44;-4.80;99.90
21267;DHT22;10791;53.108;18.326;2022-12-18T12:54:54;-4.80;99.90
21267;DHT22;10791;53.108;18.326;2022-12-18T13:00:11;-4.80;99.90
21267;DHT22;10791;53.108;18.326;2022-12-18T13:05:25;-4.70;99.90
21267;DHT22;10791;53.108;18.326;2022-12-18T13:10:40;-4.70;99.90
21267;DHT22;10791;53.108;18.326;2022-12-18T13:15:47;-4.70;99.90
21267;DHT22;10791;53.108;18.326;2022-12-18T13:36:42;-4.90;99.90
21267;DHT22;10791;53.108;18.326;2022-12-18T13:47:35;-4.90;99.90
21267;DHT22;10791;53.108;18.326;2022-12-18T13:52:43;-5.00;99.90
21267;DHT22;10791;53.108;18.326;2022-12-18T13:57:47;-5.10;99.90
21267;DHT22;10791;53.108;18.326;2022-12-18T14:03:24;-5.10;99.90
21267;DHT22;10791;53.108;18.326;2022-12-18T14:08:39;-5.30;99.90
21267;DHT22;10791;53.108;18.326;2022-12-18T14:13:46;-5.30;99.90
21267;DHT22;10791;53.108;18.326;2022-12-18T14:18:57;-5.40;99.90
21267;DHT22;10791;53.108;18.326;2022-12-18T14:24:18;-5.40;99.90
21267;DHT22;10791;53.108;18.326;2022-12-18T14:29:28;-5.40;99.90
21267;DHT22;10791;53.108;18.326;2022-12-18T14:34:32;-5.40;99.90
21267;DHT22;10791;53.108;18.326;2022-12-18T14:39:36;-5.50;99.90
21267;DHT22;10791;53.108;18.326;2022-12-18T14:44:40;-5.40;99.90
21267;DHT22;10791;53.108;18.326;2022-12-18T14:50:04;-5.40;99.90
21267;DHT22;10791;53.108;18.326;2022-12-18T14:55:17;-5.30;99.90
21267;DHT22;10791;53.108;18.326;2022-12-18T15:00:23;-5.30;99.90
21267;DHT22;10791;53.108;18.326;2022-12-18T15:05:30;-5.30;99.90
21267;DHT22;10791;53.108;18.326;2022-12-18T15:10:35;-5.30;99.90
21267;DHT22;10791;53.108;18.326;2022-12-18T15:15:50;-5.30;99.90
21267;DHT22;10791;53.108;18.326;2022-12-18T15:20:59;-5.30;99.90
21267;DHT22;10791;53.108;18.326;2022-12-18T15:26:07;-5.40;99.90
21267;DHT22;10791;53.108;18.326;2022-12-18T15:36:23;-5.40;99.90
21267;DHT22;10791;53.108;18.326;2022-12-18T15:41:35;-5.40;99.90
21267;DHT22;10791;53.108;18.326;2022-12-18T15:46:41;-5.40;99.90
21267;DHT22;10791;53.108;18.326;2022-12-18T15:51:49;-5.40;99.90
21267;DHT22;10791;53.108;18.326;2022-12-18T15:56:56;-5.30;99.90
21267;DHT22;10791;53.108;18.326;2022-12-18T16:02:21;-5.30;99.90
21267;DHT22;10791;53.108;18.326;2022-12-18T16:07:27;-5.30;99.90
21267;DHT22;10791;53.108;18.326;2022-12-18T16:12:33;-5.30;99.90
21267;DHT22;10791;53.108;18.326;2022-12-18T16:17:39;-5.20;99.90
21267;DHT22;10791;53.108;18.326;2022-12-18T16:22:45;-5.20;99.90
21267;DHT22;10791;53.108;18.326;2022-12-18T16:27:53;-5.20;99.90
21267;DHT22;10791;53.108;18.326;2022-12-18T16:33:19;-5.20;99.90
21267;DHT22;10791;53.108;18.326;2022-12-18T16:38:24;-5.20;99.90
21267;DHT22;10791;53.108;18.326;2022-12-18T16:43:31;-5.10;99.90
21267;DHT22;10791;53.108;18.326;2022-12-18T16:48:38;-5.20;99.90
21267;DHT22;10791;53.108;18.326;2022-12-18T16:53:43;-5.20;99.90
21267;DHT22;10791;53.108;18.326;2022-12-18T16:58:54;-5.20;99.90
21267;DHT22;10791;53.108;18.326;2022-12-18T17:04:04;-5.20;99.90
21267;DHT22;10791;53.108;18.326;2022-12-18T17:09:17;-5.20;99.90
21267;DHT22;10791;53.108;18.326;2022-12-18T17:14:26;-5.30;99.90
21267;DHT22;10791;53.108;18.326;2022-12-18T17:19:34;-5.30;99.90
21267;DHT22;10791;53.108;18.326;2022-12-18T17:24:39;-5.30;99.90
21267;DHT22;10791;53.108;18.326;2022-12-18T17:29:45;-5.40;99.90
21267;DHT22;10791;53.108;18.326;2022-12-18T17:34:53;-5.30;99.90
21267;DHT22;10791;53.108;18.326;2022-12-18T17:40:09;-5.30;99.90
21267;DHT22;10791;53.108;18.326;2022-12-18T17:45:18;-5.40;99.90
21267;DHT22;10791;53.108;18.326;2022-12-18T17:50:23;-5.40;99.90
21267;DHT22;10791;53.108;18.326;2022-12-18T17:55:29;-5.40;99.90
21267;DHT22;10791;53.108;18.326;2022-12-18T18:00:34;-5.40;99.90
21267;DHT22;10791;53.108;18.326;2022-12-18T18:06:01;-5.50;99.90
21267;DHT22;10791;53.108;18.326;2022-12-18T18:11:16;-5.50;99.90
21267;DHT22;10791;53.108;18.326;2022-12-18T18:16:43;-5.50;99.90
21267;DHT22;10791;53.108;18.326;2022-12-18T18:21:49;-5.50;99.90
21267;DHT22;10791;53.108;18.326;2022-12-18T18:26:54;-5.60;99.90
21267;DHT22;10791;53.108;18.326;2022-12-18T18:31:59;-5.50;99.90
21267;DHT22;10791;53.108;18.326;2022-12-18T18:37:05;-5.60;99.90
21267;DHT22;10791;53.108;18.326;2022-12-18T18:42:12;-5.60;99.90
21267;DHT22;10791;53.108;18.326;2022-12-18T18:47:16;-5.60;99.90
21267;DHT22;10791;53.108;18.326;2022-12-18T18:52:21;-5.70;99.90
21267;DHT22;10791;53.108;18.326;2022-12-18T18:57:26;-5.70;99.90
21267;DHT22;10791;53.108;18.326;2022-12-18T19:02:34;-5.70;99.90
21267;DHT22;10791;53.108;18.326;2022-12-18T19:07:42;-5.70;99.90
21267;DHT22;10791;53.108;18.326;2022-12-18T19:12:46;-5.70;99.90
21267;DHT22;10791;53.108;18.326;2022-12-18T19:18:14;-5.70;99.90
21267;DHT22;10791;53.108;18.326;2022-12-18T19:23:29;-5.90;99.90
21267;DHT22;10791;53.108;18.326;2022-12-18T19:28:35;-5.90;99.90
21267;DHT22;10791;53.108;18.326;2022-12-18T19:33:41;-6.00;99.90
21267;DHT22;10791;53.108;18.326;2022-12-18T19:38:48;-6.00;99.90
21267;DHT22;10791;53.108;18.326;2022-12-18T19:43:53;-6.10;99.90
21267;DHT22;10791;53.108;18.326;2022-12-18T19:49:03;-6.10;99.90
21267;DHT22;10791;53.108;18.326;2022-12-18T19:54:08;-6.20;99.90
21267;DHT22;10791;53.108;18.326;2022-12-18T19:59:21;-6.20;99.90
21267;DHT22;10791;53.108;18.326;2022-12-18T20:04:26;-6.10;99.90
21267;DHT22;10791;53.108;18.326;2022-12-18T20:09:32;-6.20;99.90
21267;DHT22;10791;53.108;18.326;2022-12-18T20:14:38;-6.20;99.90
21267;DHT22;10791;53.108;18.326;2022-12-18T20:19:47;-6.30;99.90
21267;DHT22;10791;53.108;18.326;2022-12-18T20:24:52;-6.30;99.90
21267;DHT22;10791;53.108;18.326;2022-12-18T20:29:58;-6.30;99.90
21267;DHT22;10791;53.108;18.326;2022-12-18T20:35:02;-6.40;99.90
21267;DHT22;10791;53.108;18.326;2022-12-18T20:40:08;-6.40;99.90
21267;DHT22;10791;53.108;18.326;2022-12-18T20:45:15;-6.40;99.90
21267;DHT22;10791;53.108;18.326;2022-12-18T20:50:20;-6.40;99.90
21267;DHT22;10791;53.108;18.326;2022-12-18T20:55:24;-6.40;99.90
21267;DHT22;10791;53.108;18.326;2022-12-18T21:00:28;-6.50;99.90
21267;DHT22;10791;53.108;18.326;2022-12-18T21:05:33;-6.40;99.90
21267;DHT22;10791;53.108;18.326;2022-12-18T21:10:40;-6.40;99.90
21267;DHT22;10791;53.108;18.326;2022-12-18T21:15:45;-6.40;99.90
21267;DHT22;10791;53.108;18.326;2022-12-18T21:20:49;-6.40;99.90
21267;DHT22;10791;53.108;18.326;2022-12-18T21:25:53;-6.30;99.90
21267;DHT22;10791;53.108;18.326;2022-12-18T21:31:00;-6.30;99.90
21267;DHT22;10791;53.108;18.326;2022-12-18T21:36:06;-6.30;99.90
21267;DHT22;10791;53.108;18.326;2022-12-18T21:41:13;-6.30;99.90
21267;DHT22;10791;53.108;18.326;2022-12-18T21:46:46;-6.30;99.90
21267;DHT22;10791;53.108;18.326;2022-12-18T21:52:00;-6.20;99.90
21267;DHT22;10791;53.108;18.326;2022-12-18T21:57:06;-6.20;99.90
21267;DHT22;10791;53.108;18.326;2022-12-18T22:02:13;-6.20;99.90
21267;DHT22;10791;53.108;18.326;2022-12-18T22:07:17;-6.20;99.90
21267;DHT22;10791;53.108;18.326;2022-12-18T22:12:21;-6.20;99.90
21267;DHT22;10791;53.108;18.326;2022-12-18T22:17:45;-6.10;99.90
21267;DHT22;10791;53.108;18.326;2022-12-18T22:22:49;-6.10;99.90
21267;DHT22;10791;53.108;18.326;2022-12-18T22:27:53;-6.10;99.90
21267;DHT22;10791;53.108;18.326;2022-12-18T22:33:18;-6.10;99.90
21267;DHT22;10791;53.108;18.326;2022-12-18T22:38:21;-6.10;99.90
21267;DHT22;10791;53.108;18.326;2022-12-18T22:43:24;-6.10;99.90
21267;DHT22;10791;53.108;18.326;2022-12-18T22:48:28;-6.10;99.90
21267;DHT22;10791;53.108;18.326;2022-12-18T22:53:32;-6.00;99.90
21267;DHT22;10791;53.108;18.326;2022-12-18T22:58:37;-6.00;99.90
21267;DHT22;10791;53.108;18.326;2022-12-18T23:03:40;-6.00;99.90
21267;DHT22;10791;53.108;18.326;2022-12-18T23:08:44;-6.00;99.90
21267;DHT22;10791;53.108;18.326;2022-12-18T23:13:54;-6.00;99.90
21267;DHT22;10791;53.108;18.326;2022-12-18T23:19:00;-6.00;99.90
21267;DHT22;10791;53.108;18.326;2022-12-18T23:24:05;-6.00;99.90
21267;DHT22;10791;53.108;18.326;2022-12-18T23:29:09;-6.00;99.90
21267;DHT22;10791;53.108;18.326;2022-12-18T23:34:13;-6.00;99.90
21267;DHT22;10791;53.108;18.326;2022-12-18T23:39:17;-6.00;99.90
21267;DHT22;10791;53.108;18.326;2022-12-18T23:44:31;-6.00;99.90
21267;DHT22;10791;53.108;18.326;2022-12-18T23:49:35;-6.00;99.90
21267;DHT22;10791;53.108;18.326;2022-12-18T23:54:39;-6.00;99.90
21267;DHT22;10791;53.108;18.326;2022-12-18T23:59:44;-6.00;99.90
